Time;durP1;ratioP1;P1;durP2;ratioP2;P2;SDS_P1;SDS_P2;PMS_P1;PMS_P2;Temp;Humidity;BMP_temperature;BMP_pressure;BME280_temperature;BME280_humidity;BME280_pressure;Samples;Min_cycle;Max_cycle;Signal;HPM_P1;HPM_P2
2022/01/20 00:01:50;;;;;;;18.40;4.35;;;4.20;99.90;;;;;;5074315;28;20052;-67
2022/01/20 00:04:36;;;;;;;15.65;3.40;;;4.20;99.90;;;;;;5080397;28;20095;-67
2022/01/20 00:09:49;;;;;;;14.07;2.60;;;4.10;99.90;;;;;;5072467;28;20570;-67
2022/01/20 00:23:09;;;;;;;13.95;3.00;;;4.00;99.90;;;;;;5072559;28;20048;-67
2022/01/20 00:25:58;;;;;;;11.13;2.50;;;3.80;99.90;;;;;;5072659;28;20392;-66
2022/01/20 00:28:39;;;;;;;16.55;2.33;;;3.80;99.90;;;;;;5072309;28;20492;-67
2022/01/20 00:31:29;;;;;;;9.60;2.47;;;3.90;99.90;;;;;;5054747;28;20053;-67
2022/01/20 00:34:10;;;;;;;12.38;2.40;;;3.80;99.90;;;;;;5080339;28;20135;-67
2022/01/20 00:39:02;;;;;;;9.65;1.90;;;3.90;99.90;;;;;;5085744;28;20082;-67
2022/01/20 00:41:28;;;;;;;11.15;2.83;;;4.00;99.90;;;;;;5101474;28;20124;-66
2022/01/20 00:43:53;;;;;;;11.88;2.00;;;4.00;99.90;;;;;;5071980;28;20548;-67
2022/01/20 00:46:19;;;;;;;10.30;1.80;;;4.00;99.90;;;;;;5071332;28;20094;-66
2022/01/20 00:48:44;;;;;;;9.70;2.10;;;4.00;99.90;;;;;;5075938;28;20048;-66
2022/01/20 00:51:10;;;;;;;8.73;1.88;;;4.00;99.90;;;;;;5075198;28;20047;-67
2022/01/20 00:53:36;;;;;;;16.52;2.45;;;3.90;99.90;;;;;;5090032;28;20060;-68
2022/01/20 00:56:02;;;;;;;15.77;2.17;;;3.80;99.90;;;;;;5088487;28;20044;-67
2022/01/20 00:58:27;;;;;;;16.02;2.15;;;3.80;99.90;;;;;;5071967;28;20401;-65
2022/01/20 01:00:54;;;;;;;9.55;2.20;;;3.80;99.90;;;;;;5076208;28;20044;-66
2022/01/20 01:03:21;;;;;;;13.05;2.58;;;3.80;99.90;;;;;;5093650;28;20063;-69
2022/01/20 01:08:32;;;;;;;10.38;2.70;;;3.70;99.90;;;;;;5065530;28;20409;-65
2022/01/20 01:10:58;;;;;;;12.73;2.65;;;3.60;99.90;;;;;;5055161;28;20044;-68
2022/01/20 01:13:26;;;;;;;19.45;2.88;;;3.60;99.90;;;;;;5071722;28;20128;-67
2022/01/20 01:15:52;;;;;;;15.25;2.78;;;3.50;99.90;;;;;;5070678;28;20488;-67
2022/01/20 01:23:38;;;;;;;12.23;2.22;;;3.50;99.90;;;;;;5087260;28;20143;-68
2022/01/20 01:26:07;;;;;;;10.70;2.22;;;3.40;99.90;;;;;;5115637;28;20099;-66
2022/01/20 01:28:33;;;;;;;10.88;1.88;;;3.40;99.90;;;;;;5084028;28;20086;-67
2022/01/20 01:33:36;;;;;;;14.63;2.38;;;3.40;99.90;;;;;;5110993;28;20484;-66
2022/01/20 01:36:04;;;;;;;9.48;2.30;;;3.40;99.90;;;;;;5095981;28;20052;-66
2022/01/20 01:38:36;;;;;;;11.93;2.30;;;3.40;99.90;;;;;;5090184;28;20048;-66
2022/01/20 01:41:10;;;;;;;8.80;1.85;;;3.40;99.90;;;;;;5093145;28;20098;-66
2022/01/20 01:43:37;;;;;;;9.43;1.85;;;3.50;99.90;;;;;;5059527;28;20140;-65
2022/01/20 01:46:04;;;;;;;11.20;2.45;;;3.60;99.90;;;;;;5095140;28;20147;-67
2022/01/20 01:48:29;;;;;;;10.02;2.10;;;3.70;99.90;;;;;;5095486;28;20058;-65
2022/01/20 01:50:56;;;;;;;9.95;1.70;;;3.80;99.90;;;;;;5095192;28;20551;-66
2022/01/20 01:53:21;;;;;;;14.55;2.40;;;4.00;99.90;;;;;;5088215;28;20468;-67
2022/01/20 01:55:47;;;;;;;8.85;1.70;;;4.00;99.90;;;;;;5077974;28;20055;-66
2022/01/20 01:58:13;;;;;;;9.73;2.45;;;4.00;99.90;;;;;;5094969;28;20135;-69
2022/01/20 02:00:40;;;;;;;6.57;2.05;;;4.00;99.90;;;;;;5089856;28;20048;-67
2022/01/20 02:03:06;;;;;;;5.85;1.50;;;4.00;99.90;;;;;;5074417;28;20055;-68
2022/01/20 02:05:34;;;;;;;7.18;1.98;;;4.00;99.90;;;;;;5074808;28;20044;-66
2022/01/20 02:08:22;;;;;;;9.57;1.92;;;4.00;99.90;;;;;;5083095;28;20138;-68
2022/01/20 02:19:06;;;;;;;5.80;1.63;;;3.80;99.90;;;;;;5083961;28;20477;-67
2022/01/20 02:21:32;;;;;;;11.13;2.13;;;3.70;99.90;;;;;;5111041;28;20102;-66
2022/01/20 02:23:58;;;;;;;11.73;1.67;;;3.70;99.90;;;;;;5087495;28;20052;-67
2022/01/20 02:26:23;;;;;;;10.15;2.45;;;3.70;99.90;;;;;;5101399;28;20101;-65
2022/01/20 02:28:49;;;;;;;8.25;2.08;;;3.70;99.90;;;;;;5109472;28;20040;-66
2022/01/20 02:31:15;;;;;;;9.07;1.42;;;3.70;99.90;;;;;;5091846;28;20067;-66
2022/01/20 02:33:41;;;;;;;8.63;1.92;;;3.70;99.90;;;;;;5126426;27;20048;-65
2022/01/20 02:36:12;;;;;;;5.95;1.33;;;3.80;99.90;;;;;;5093708;28;20052;-66
2022/01/20 02:46:35;;;;;;;7.65;1.35;;;3.90;99.90;;;;;;5093339;28;20105;-69
2022/01/20 02:49:01;;;;;;;5.88;1.15;;;3.90;99.90;;;;;;5094457;28;20056;-66
2022/01/20 02:51:26;;;;;;;6.07;1.30;;;3.80;99.90;;;;;;5075405;28;20389;-67
2022/01/20 02:53:52;;;;;;;4.18;1.23;;;3.70;99.90;;;;;;5097195;28;20047;-68
2022/01/20 02:56:18;;;;;;;7.45;1.80;;;3.70;99.90;;;;;;5083264;28;20090;-66
2022/01/20 02:58:44;;;;;;;8.35;1.90;;;3.70;99.90;;;;;;5074068;28;20143;-68
2022/01/20 03:01:10;;;;;;;10.40;1.55;;;3.70;99.90;;;;;;5074744;28;20377;-67
2022/01/20 03:03:36;;;;;;;6.32;1.40;;;3.70;99.90;;;;;;5073450;28;20048;-67
2022/01/20 03:06:03;;;;;;;14.25;2.20;;;3.70;99.90;;;;;;5077570;28;20434;-67
2022/01/20 03:08:28;;;;;;;14.25;2.42;;;3.60;99.90;;;;;;5079247;28;20127;-68
2022/01/20 03:10:54;;;;;;;8.88;2.40;;;3.60;99.90;;;;;;5093156;28;20516;-69
2022/01/20 03:13:20;;;;;;;9.15;1.83;;;3.60;99.90;;;;;;5093353;28;20052;-67
2022/01/20 03:15:45;;;;;;;10.93;2.00;;;3.60;99.90;;;;;;5093253;28;20048;-67
2022/01/20 03:18:11;;;;;;;13.13;2.30;;;3.50;99.90;;;;;;5091750;28;20093;-67
2022/01/20 03:20:37;;;;;;;12.18;2.85;;;3.50;99.90;;;;;;5090776;28;20044;-67
2022/01/20 03:23:03;;;;;;;12.15;1.92;;;3.40;99.90;;;;;;5076408;28;20453;-67
2022/01/20 03:25:29;;;;;;;12.52;2.17;;;3.50;99.90;;;;;;5084661;28;20096;-68
2022/01/20 03:27:56;;;;;;;12.35;2.33;;;3.40;99.90;;;;;;5073203;28;20127;-66
2022/01/20 03:30:23;;;;;;;12.07;2.30;;;3.40;99.90;;;;;;5074675;28;20048;-67
2022/01/20 03:32:49;;;;;;;12.02;1.85;;;3.40;99.90;;;;;;5073801;28;20523;-69
2022/01/20 03:35:14;;;;;;;15.93;2.50;;;3.50;99.90;;;;;;5072850;28;20160;-66
2022/01/20 03:37:41;;;;;;;16.25;2.35;;;3.40;99.90;;;;;;5085010;28;20190;-68
2022/01/20 03:40:08;;;;;;;23.35;3.88;;;3.50;99.90;;;;;;5073769;28;20052;-68
2022/01/20 03:42:34;;;;;;;10.50;2.15;;;3.50;99.90;;;;;;5073390;28;20450;-65
2022/01/20 03:44:59;;;;;;;10.52;2.58;;;3.40;99.90;;;;;;5093686;28;20400;-68
2022/01/20 03:47:26;;;;;;;14.10;2.70;;;3.50;99.90;;;;;;5091972;28;20131;-67
2022/01/20 03:52:27;;;;;;;17.67;3.00;;;3.40;99.90;;;;;;5089125;28;20054;-67
2022/01/20 03:54:53;;;;;;;13.13;2.30;;;3.40;99.90;;;;;;5073009;28;20052;-68
2022/01/20 03:57:19;;;;;;;16.17;2.92;;;3.40;99.90;;;;;;5072550;28;20057;-67
2022/01/20 03:59:46;;;;;;;15.18;3.03;;;3.40;99.90;;;;;;5072585;28;20056;-67
2022/01/20 04:02:12;;;;;;;23.40;3.60;;;3.40;99.90;;;;;;5086967;28;20047;-67
2022/01/20 04:04:37;;;;;;;16.52;3.83;;;3.40;99.90;;;;;;5104767;28;20060;-68
2022/01/20 04:07:04;;;;;;;18.05;3.70;;;3.40;99.90;;;;;;5109911;27;20507;-67
2022/01/20 04:09:29;;;;;;;18.50;3.22;;;3.40;99.90;;;;;;5072235;28;20118;-68
2022/01/20 04:11:55;;;;;;;28.17;3.55;;;3.40;99.90;;;;;;5072782;28;20048;-67
2022/01/20 04:14:23;;;;;;;14.05;3.38;;;3.50;99.90;;;;;;5055841;28;20059;-68
2022/01/20 04:17:16;;;;;;;17.77;4.43;;;3.40;99.90;;;;;;5072065;28;20439;-68
2022/01/20 04:19:35;;;;;;;19.10;3.75;;;3.40;99.90;;;;;;5071664;28;20132;-67
2022/01/20 04:22:02;;;;;;;15.38;4.03;;;3.40;99.90;;;;;;5089719;28;20123;-67
2022/01/20 04:24:28;;;;;;;18.25;3.08;;;3.40;99.90;;;;;;5092603;28;20507;-69
2022/01/20 04:26:54;;;;;;;16.08;3.00;;;3.40;99.90;;;;;;5092368;28;20123;-67
2022/01/20 04:29:20;;;;;;;17.90;3.30;;;3.30;99.90;;;;;;5092269;28;20054;-67
2022/01/20 04:31:46;;;;;;;33.58;3.55;;;3.30;99.90;;;;;;5075267;28;20167;-67
2022/01/20 04:34:12;;;;;;;12.73;3.05;;;3.30;99.90;;;;;;5091547;28;20040;-67
2022/01/20 04:36:41;;;;;;;12.05;2.40;;;3.30;99.90;;;;;;5111294;27;20477;-67
2022/01/20 04:39:12;;;;;;;14.13;2.78;;;3.30;99.90;;;;;;5086442;28;20052;-66
2022/01/20 04:41:38;;;;;;;14.98;2.72;;;3.30;99.90;;;;;;5089930;28;20048;-68
2022/01/20 04:44:09;;;;;;;11.88;2.00;;;3.40;99.90;;;;;;5084589;28;20105;-67
2022/01/20 04:46:42;;;;;;;16.30;2.50;;;3.30;99.90;;;;;;5072408;28;20131;-69
2022/01/20 04:59:36;;;;;;;13.60;2.78;;;3.10;99.90;;;;;;5088136;28;20048;-67
2022/01/20 05:02:02;;;;;;;16.48;2.53;;;3.00;99.90;;;;;;5094828;28;20059;-69
2022/01/20 05:04:28;;;;;;;13.55;2.80;;;2.90;99.90;;;;;;5103251;28;20124;-66
2022/01/20 05:06:56;;;;;;;10.60;2.63;;;2.90;99.90;;;;;;5091083;28;20052;-66
2022/01/20 05:09:22;;;;;;;13.13;2.88;;;2.90;99.90;;;;;;5090097;28;20067;-70
2022/01/20 05:11:57;;;;;;;12.40;2.78;;;3.00;99.90;;;;;;5072839;28;20055;-67
2022/01/20 05:14:23;;;;;;;13.82;2.92;;;3.00;99.90;;;;;;5072495;28;20574;-68
2022/01/20 05:16:51;;;;;;;8.63;2.00;;;3.00;99.90;;;;;;5088966;28;20147;-67
2022/01/20 05:19:16;;;;;;;12.38;2.40;;;3.10;99.90;;;;;;5113492;28;20134;-68
2022/01/20 05:21:42;;;;;;;12.68;2.85;;;3.10;99.90;;;;;;5094523;28;20595;-66
2022/01/20 05:24:07;;;;;;;11.43;2.22;;;3.10;99.90;;;;;;5092031;28;20048;-66
2022/01/20 05:26:33;;;;;;;15.15;2.60;;;3.10;99.90;;;;;;5091390;28;20396;-67
2022/01/20 05:28:59;;;;;;;11.98;3.53;;;3.10;99.90;;;;;;5092064;28;20052;-67
2022/01/20 05:31:24;;;;;;;18.77;2.50;;;3.10;99.90;;;;;;5091337;28;20484;-67
2022/01/20 05:33:50;;;;;;;12.73;2.45;;;3.10;99.90;;;;;;5116795;28;20085;-67
2022/01/20 05:36:15;;;;;;;14.45;3.75;;;3.00;99.90;;;;;;5085416;28;20055;-68
2022/01/20 05:38:41;;;;;;;10.90;2.00;;;3.00;99.90;;;;;;5095691;28;20052;-68
2022/01/20 05:41:06;;;;;;;16.10;2.72;;;3.00;99.90;;;;;;5093183;28;20388;-67
2022/01/20 05:43:32;;;;;;;9.60;2.40;;;3.00;99.90;;;;;;5071319;28;20123;-67
2022/01/20 05:45:58;;;;;;;18.25;2.85;;;3.00;99.90;;;;;;5082142;28;20455;-68
2022/01/20 05:48:34;;;;;;;12.13;2.80;;;3.00;99.90;;;;;;5075905;28;20060;-66
2022/01/20 05:51:01;;;;;;;12.85;3.33;;;3.00;99.90;;;;;;5103804;28;20141;-68
2022/01/20 05:53:27;;;;;;;11.20;2.13;;;2.90;99.90;;;;;;5080986;28;20049;-66
2022/01/20 05:55:53;;;;;;;5.13;1.20;;;2.90;99.90;;;;;;5074437;28;20097;-67
2022/01/20 05:58:19;;;;;;;7.68;1.65;;;2.80;99.90;;;;;;5077268;28;20048;-67
2022/01/20 06:00:46;;;;;;;5.95;1.27;;;2.90;99.90;;;;;;5083465;28;20056;-66
2022/01/20 06:05:57;;;;;;;7.20;1.48;;;2.70;99.90;;;;;;5071264;28;20056;-68
2022/01/20 06:08:22;;;;;;;11.32;2.17;;;2.70;99.90;;;;;;5081153;28;20373;-68
2022/01/20 06:10:48;;;;;;;11.93;4.00;;;2.60;99.90;;;;;;5075509;28;20059;-69
2022/01/20 06:13:14;;;;;;;9.40;1.67;;;2.50;99.90;;;;;;5104432;28;20130;-67
2022/01/20 06:15:39;;;;;;;9.63;1.90;;;2.40;99.90;;;;;;5104715;28;20059;-69
2022/01/20 06:18:05;;;;;;;8.75;1.75;;;2.40;99.90;;;;;;5094553;28;20063;-67
2022/01/20 06:20:31;;;;;;;11.52;1.70;;;2.30;99.90;;;;;;5084524;28;20139;-66
2022/01/20 06:22:57;;;;;;;6.72;1.55;;;2.20;99.90;;;;;;5086004;28;20098;-66
2022/01/20 06:25:23;;;;;;;5.13;1.52;;;2.20;99.90;;;;;;5090080;28;20055;-67
2022/01/20 06:27:49;;;;;;;9.80;1.80;;;2.40;99.90;;;;;;5076733;28;20056;-67
2022/01/20 06:30:15;;;;;;;8.02;1.90;;;2.30;99.90;;;;;;5129132;27;20083;-67
2022/01/20 06:32:41;;;;;;;13.35;1.73;;;2.30;99.90;;;;;;5092162;28;20090;-67
2022/01/20 06:35:08;;;;;;;8.00;1.52;;;2.40;99.90;;;;;;5083188;28;20123;-68
2022/01/20 06:37:34;;;;;;;9.15;1.90;;;2.40;99.90;;;;;;5095477;28;20088;-67
2022/01/20 06:40:00;;;;;;;9.98;1.60;;;2.30;99.90;;;;;;5094015;28;20079;-68
2022/01/20 06:42:26;;;;;;;8.77;1.92;;;2.30;99.90;;;;;;5094478;28;20044;-67
2022/01/20 06:44:51;;;;;;;6.10;1.65;;;2.30;99.90;;;;;;5094362;28;20055;-68
2022/01/20 06:47:19;;;;;;;8.50;1.58;;;2.20;99.90;;;;;;5095361;28;20143;-68
2022/01/20 06:49:45;;;;;;;16.23;3.55;;;2.10;99.90;;;;;;5095592;28;20408;-68
2022/01/20 06:52:11;;;;;;;12.82;1.95;;;2.10;99.90;;;;;;5094487;28;20056;-66
2022/01/20 06:54:36;;;;;;;16.67;2.42;;;2.10;99.90;;;;;;5088813;28;20143;-66
2022/01/20 06:57:02;;;;;;;11.27;2.35;;;2.10;99.90;;;;;;5094660;28;20048;-67
2022/01/20 06:59:28;;;;;;;14.60;2.50;;;2.10;99.90;;;;;;5091788;28;20044;-68
2022/01/20 07:01:54;;;;;;;9.02;1.75;;;2.00;99.90;;;;;;5107515;28;20055;-67
2022/01/20 07:04:19;;;;;;;9.10;2.25;;;2.00;99.90;;;;;;5089407;28;20136;-67
2022/01/20 07:06:45;;;;;;;12.25;3.05;;;2.00;99.90;;;;;;5093590;28;20106;-68
2022/01/20 07:09:11;;;;;;;10.43;2.15;;;2.00;99.90;;;;;;5084768;28;20047;-67
2022/01/20 07:11:41;;;;;;;8.52;1.58;;;2.00;99.90;;;;;;5093872;28;20388;-67
2022/01/20 07:14:08;;;;;;;13.05;2.00;;;1.90;99.90;;;;;;5092564;28;20157;-66
2022/01/20 07:16:34;;;;;;;8.82;1.77;;;2.00;99.90;;;;;;5084287;28;20056;-66
2022/01/20 07:18:59;;;;;;;11.23;2.00;;;2.10;99.90;;;;;;5093623;28;20089;-68
2022/01/20 07:21:25;;;;;;;13.02;2.50;;;2.20;99.90;;;;;;5092700;28;20484;-67
2022/01/20 07:23:51;;;;;;;10.27;1.83;;;2.20;99.90;;;;;;5093899;28;20102;-66
2022/01/20 07:26:17;;;;;;;14.10;2.33;;;2.30;99.90;;;;;;5092414;28;20056;-67
2022/01/20 07:28:42;;;;;;;10.50;3.72;;;2.30;99.90;;;;;;5093436;28;20498;-66
2022/01/20 07:31:08;;;;;;;13.15;2.60;;;2.40;99.90;;;;;;5092558;28;20052;-67
2022/01/20 07:33:35;;;;;;;12.13;2.53;;;2.30;99.90;;;;;;5094010;28;20549;-65
2022/01/20 07:36:00;;;;;;;11.30;1.95;;;2.30;99.90;;;;;;5094517;28;20060;-67
2022/01/20 07:38:26;;;;;;;8.68;1.80;;;2.30;99.90;;;;;;5093316;28;20433;-67
2022/01/20 07:40:52;;;;;;;10.15;2.20;;;2.30;99.90;;;;;;5093590;28;20160;-68
2022/01/20 07:43:18;;;;;;;9.88;1.85;;;2.30;99.90;;;;;;5094176;28;20063;-68
2022/01/20 07:45:44;;;;;;;10.25;2.80;;;2.40;99.90;;;;;;5081138;28;20586;-66
2022/01/20 07:48:10;;;;;;;13.43;2.20;;;2.40;99.90;;;;;;5092601;28;20063;-66
2022/01/20 07:50:36;;;;;;;11.45;3.40;;;2.40;99.90;;;;;;5093469;28;20052;-67
2022/01/20 07:53:03;;;;;;;11.60;2.20;;;2.50;99.90;;;;;;5092521;28;20480;-67
2022/01/20 07:55:29;;;;;;;15.07;2.15;;;2.50;99.90;;;;;;5093195;28;20050;-68
2022/01/20 07:57:55;;;;;;;10.73;2.28;;;2.50;99.90;;;;;;5092835;28;20134;-68
2022/01/20 08:00:21;;;;;;;11.30;2.42;;;2.50;99.90;;;;;;5093224;28;20132;-67
2022/01/20 08:02:47;;;;;;;9.93;2.05;;;2.40;99.90;;;;;;5074276;28;20098;-66
2022/01/20 08:05:13;;;;;;;15.50;2.67;;;2.30;99.90;;;;;;5073212;28;20056;-68
2022/01/20 08:07:38;;;;;;;12.27;2.53;;;2.40;99.90;;;;;;5085547;28;20054;-67
2022/01/20 08:10:05;;;;;;;11.35;2.47;;;2.30;99.90;;;;;;5092984;28;20399;-67
2022/01/20 08:12:31;;;;;;;11.98;2.33;;;2.30;99.90;;;;;;5092126;28;20377;-67
2022/01/20 08:14:58;;;;;;;19.83;2.25;;;2.20;99.90;;;;;;5093002;28;20059;-68
2022/01/20 08:17:24;;;;;;;11.05;2.40;;;2.20;99.90;;;;;;5082455;28;20048;-66
2022/01/20 08:19:51;;;;;;;12.50;2.97;;;2.20;99.90;;;;;;5109630;27;20063;-67
2022/01/20 08:22:17;;;;;;;9.05;1.92;;;2.30;99.90;;;;;;5072242;28;20067;-67
2022/01/20 08:24:42;;;;;;;9.65;2.60;;;2.30;99.90;;;;;;5083252;28;20041;-67
2022/01/20 08:27:09;;;;;;;8.82;2.05;;;2.20;99.90;;;;;;5072418;28;20052;-66
2022/01/20 08:29:35;;;;;;;16.20;2.88;;;2.30;99.90;;;;;;5082663;28;20089;-67
2022/01/20 08:32:01;;;;;;;11.63;2.38;;;2.30;99.90;;;;;;5096371;28;20484;-66
2022/01/20 08:34:27;;;;;;;14.23;2.80;;;2.30;99.90;;;;;;5093386;28;20058;-67
2022/01/20 08:36:55;;;;;;;16.02;2.30;;;2.40;99.90;;;;;;5092268;28;20166;-67
2022/01/20 08:39:44;;;;;;;14.60;3.50;;;2.50;99.90;;;;;;5092159;28;20056;-67
2022/01/20 08:42:08;;;;;;;13.55;2.88;;;2.60;99.90;;;;;;5087065;28;20071;-68
2022/01/20 08:44:34;;;;;;;6.93;2.58;;;2.60;99.90;;;;;;5093717;28;20063;-67
2022/01/20 08:47:02;;;;;;;15.15;2.63;;;2.70;99.90;;;;;;5091936;28;20036;-68
2022/01/20 08:49:28;;;;;;;15.00;2.58;;;2.80;99.90;;;;;;5112770;28;20075;-67
2022/01/20 08:51:54;;;;;;;15.48;2.60;;;2.80;99.90;;;;;;5094832;28;20507;-68
2022/01/20 08:54:20;;;;;;;7.60;1.40;;;3.00;99.90;;;;;;5092624;28;20124;-68
2022/01/20 08:56:47;;;;;;;7.63;1.73;;;3.00;99.90;;;;;;5123424;27;20104;-68
2022/01/20 08:59:13;;;;;;;13.30;2.15;;;3.00;99.90;;;;;;5092172;28;20052;-67
2022/01/20 09:01:41;;;;;;;18.60;2.70;;;2.80;99.90;;;;;;5091002;28;20070;-67
2022/01/20 09:04:07;;;;;;;14.10;2.35;;;2.70;99.90;;;;;;5105804;28;20071;-68
2022/01/20 09:06:33;;;;;;;8.68;1.60;;;2.50;99.90;;;;;;5083264;28;20411;-68
2022/01/20 09:08:59;;;;;;;10.88;2.65;;;2.50;99.90;;;;;;5092658;28;20067;-68
2022/01/20 09:11:31;;;;;;;12.90;2.25;;;2.60;99.90;;;;;;5091837;28;20040;-67
2022/01/20 09:16:43;;;;;;;7.82;1.55;;;2.40;99.90;;;;;;5091321;28;20051;-66
2022/01/20 09:19:09;;;;;;;6.05;1.48;;;2.40;99.90;;;;;;5091128;28;20500;-67
2022/01/20 09:21:35;;;;;;;8.52;2.10;;;2.20;99.90;;;;;;5091453;28;20051;-67
2022/01/20 09:24:00;;;;;;;6.95;1.80;;;2.20;99.90;;;;;;5091605;28;20048;-67
2022/01/20 09:26:26;;;;;;;4.90;1.40;;;2.20;99.90;;;;;;5091808;28;20392;-67
2022/01/20 09:28:52;;;;;;;7.97;1.50;;;2.20;99.90;;;;;;5091598;28;20055;-68
2022/01/20 09:31:23;;;;;;;6.68;1.60;;;2.10;99.90;;;;;;5091749;28;20109;-68
2022/01/20 09:33:52;;;;;;;9.13;1.65;;;2.10;99.90;;;;;;5091696;28;20059;-67
2022/01/20 09:36:20;;;;;;;7.13;1.80;;;2.00;99.90;;;;;;5091455;28;20056;-67
2022/01/20 09:38:46;;;;;;;12.07;1.65;;;2.20;99.90;;;;;;5090377;28;20059;-67
2022/01/20 09:41:12;;;;;;;4.32;1.33;;;2.10;99.90;;;;;;5091560;28;20048;-69
2022/01/20 09:43:38;;;;;;;7.57;1.55;;;2.20;99.90;;;;;;5091674;28;20048;-67
2022/01/20 09:46:04;;;;;;;10.65;2.25;;;2.30;99.90;;;;;;5073921;28;20552;-67
2022/01/20 09:48:32;;;;;;;6.00;1.65;;;2.50;99.90;;;;;;5091706;28;20052;-65
2022/01/20 09:51:00;;;;;;;6.80;1.67;;;2.70;99.90;;;;;;5078482;28;20074;-68
2022/01/20 09:53:29;;;;;;;5.65;1.45;;;2.80;99.90;;;;;;5095787;28;20134;-69
2022/01/20 09:55:56;;;;;;;11.27;2.60;;;2.80;99.90;;;;;;5094897;28;20063;-71
2022/01/20 09:58:22;;;;;;;4.97;1.33;;;2.60;99.90;;;;;;5095762;28;20052;-70
2022/01/20 10:00:51;;;;;;;9.18;1.70;;;2.50;99.90;;;;;;5094882;28;20052;-67
2022/01/20 10:03:22;;;;;;;9.27;1.60;;;2.30;99.90;;;;;;5096903;28;20430;-69
2022/01/20 10:05:52;;;;;;;9.30;1.98;;;2.20;99.90;;;;;;5095492;28;20452;-68
2022/01/20 10:08:24;;;;;;;11.02;1.70;;;2.10;99.90;;;;;;5096649;28;20086;-68
2022/01/20 10:10:52;;;;;;;7.88;1.33;;;2.00;99.90;;;;;;5096156;28;20169;-68
2022/01/20 10:13:21;;;;;;;9.05;1.35;;;1.90;99.90;;;;;;5078744;28;20135;-68
2022/01/20 10:16:06;;;;;;;8.18;1.60;;;2.00;99.90;;;;;;5095750;28;20052;-69
2022/01/20 10:18:34;;;;;;;5.22;1.02;;;2.00;99.90;;;;;;5091687;28;20044;-68
2022/01/20 10:21:05;;;;;;;6.25;1.40;;;2.10;99.90;;;;;;5074805;28;20266;-68
2022/01/20 10:23:36;;;;;;;7.43;1.05;;;2.40;99.90;;;;;;5075161;28;20138;-68
2022/01/20 10:26:23;;;;;;;5.93;1.40;;;2.60;99.90;;;;;;5074619;28;20056;-68
2022/01/20 10:28:51;;;;;;;8.57;2.00;;;;;;;;;;5075685;28;20163;-68
2022/01/20 10:31:19;;;;;;;8.45;1.67;;;2.80;99.90;;;;;;5094104;28;20131;-67
2022/01/20 10:33:46;;;;;;;8.68;1.60;;;2.70;99.90;;;;;;5093396;28;20100;-68
2022/01/20 10:36:13;;;;;;;9.40;1.55;;;2.60;99.90;;;;;;5092980;28;20059;-68
2022/01/20 10:38:53;;;;;;;6.18;1.70;;;2.40;99.90;;;;;;5086191;28;20127;-67
2022/01/20 10:41:38;;;;;;;6.45;1.20;;;2.40;99.90;;;;;;5090407;28;20123;-67
2022/01/20 10:44:14;;;;;;;7.13;1.52;;;2.40;99.90;;;;;;5091369;28;20060;-69
2022/01/20 10:46:45;;;;;;;9.13;1.55;;;2.30;99.90;;;;;;5092474;28;20055;-69
2022/01/20 10:49:11;;;;;;;6.07;1.20;;;2.30;99.90;;;;;;5094566;28;20052;-69
2022/01/20 10:51:37;;;;;;;10.30;2.15;;;2.30;99.90;;;;;;5094155;28;20127;-68
2022/01/20 10:54:10;;;;;;;8.65;1.67;;;2.30;99.90;;;;;;5094664;28;20055;-67
2022/01/20 10:56:59;;;;;;;5.50;1.40;;;2.40;99.90;;;;;;5076059;28;20048;-67
2022/01/20 10:59:25;;;;;;;10.18;1.92;;;2.50;99.90;;;;;;5086640;28;20109;-66
2022/01/20 11:02:03;;;;;;;10.10;2.25;;;2.60;99.90;;;;;;5093178;28;20052;-68
2022/01/20 11:04:30;;;;;;;14.93;2.83;;;2.70;99.90;;;;;;5094619;28;20036;-66
2022/01/20 11:06:59;;;;;;;8.63;1.83;;;2.80;99.90;;;;;;5090108;28;20059;-67
2022/01/20 11:09:26;;;;;;;7.60;1.42;;;2.90;99.90;;;;;;5091694;28;20403;-67
2022/01/20 11:11:52;;;;;;;7.13;1.70;;;3.00;99.90;;;;;;5094238;28;20403;-67
2022/01/20 11:14:17;;;;;;;7.50;1.95;;;3.10;99.90;;;;;;5094832;28;20135;-67
2022/01/20 11:16:44;;;;;;;10.50;1.83;;;3.10;99.90;;;;;;5081615;28;20044;-67
2022/01/20 11:19:22;;;;;;;7.55;2.03;;;3.20;99.90;;;;;;5089723;28;20052;-66
2022/01/20 11:21:49;;;;;;;9.40;2.00;;;3.30;99.90;;;;;;5093798;28;20059;-69
2022/01/20 11:24:25;;;;;;;7.35;1.77;;;3.50;99.90;;;;;;5091856;28;20067;-66
2022/01/20 11:26:56;;;;;;;12.05;2.22;;;3.50;99.90;;;;;;5081001;28;20080;-69
2022/01/20 11:29:25;;;;;;;11.38;2.08;;;3.50;99.90;;;;;;5087105;28;20093;-66
2022/01/20 11:31:52;;;;;;;11.50;2.35;;;3.70;99.90;;;;;;5087863;28;20045;-67
2022/01/20 11:34:20;;;;;;;8.63;1.67;;;3.80;99.90;;;;;;5092920;28;20045;-66
2022/01/20 11:36:48;;;;;;;9.02;2.03;;;3.80;99.90;;;;;;5076558;28;20476;-67
2022/01/20 11:39:17;;;;;;;12.43;2.60;;;3.90;99.90;;;;;;5093668;28;20052;-68
2022/01/20 11:41:49;;;;;;;9.00;3.15;;;3.90;99.90;;;;;;5093468;28;20055;-66
2022/01/20 11:44:23;;;;;;;7.63;2.00;;;4.00;99.90;;;;;;5074402;28;20123;-67
2022/01/20 11:46:51;;;;;;;13.25;2.55;;;4.10;99.90;;;;;;5072624;28;20056;-68
2022/01/20 11:49:19;;;;;;;15.88;2.60;;;4.20;99.90;;;;;;5090967;28;20526;-67
2022/01/20 11:51:51;;;;;;;10.88;2.05;;;4.20;99.90;;;;;;5093707;28;20056;-68
2022/01/20 11:54:34;;;;;;;10.73;3.08;;;4.30;99.90;;;;;;5093362;28;20059;-66
2022/01/20 11:57:13;;;;;;;6.10;1.55;;;4.40;99.90;;;;;;5092073;28;20040;-67
2022/01/20 11:59:40;;;;;;;8.73;2.10;;;4.50;99.90;;;;;;5094600;28;20048;-67
2022/01/20 12:02:06;;;;;;;9.27;1.75;;;4.50;99.90;;;;;;5092565;28;20044;-67
2022/01/20 12:04:36;;;;;;;9.73;1.90;;;4.60;99.90;;;;;;5093184;28;20062;-67
2022/01/20 12:07:03;;;;;;;11.57;2.17;;;4.60;99.90;;;;;;5094225;28;20055;-68
2022/01/20 12:09:35;;;;;;;7.55;2.10;;;4.60;99.90;;;;;;5092342;28;20449;-69
2022/01/20 12:12:06;;;;;;;12.65;2.80;;;4.50;99.90;;;;;;5092419;28;20060;-67
2022/01/20 12:14:38;;;;;;;15.88;2.55;;;4.30;99.90;;;;;;5092240;28;20055;-66
2022/01/20 12:17:04;;;;;;;;;;;4.10;99.90;;;;;;5072626;28;20056;-68
2022/01/20 12:19:29;;;;;;;8.40;1.60;;;4.00;99.90;;;;;;5072631;28;19920;-66
2022/01/20 12:21:55;;;;;;;10.75;2.67;;;3.90;99.90;;;;;;5072346;28;20060;-66
2022/01/20 12:24:20;;;;;;;10.45;2.15;;;3.90;99.90;;;;;;5089042;28;20055;-68
2022/01/20 12:26:46;;;;;;;11.90;2.47;;;4.00;99.90;;;;;;5092054;28;20083;-70
2022/01/20 12:29:12;;;;;;;10.85;2.20;;;4.00;99.90;;;;;;5092897;28;20052;-67
2022/01/20 12:31:50;;;;;;;6.70;1.50;;;4.10;99.90;;;;;;5092224;28;20448;-66
2022/01/20 12:34:16;;;;;;;13.20;2.20;;;4.20;99.90;;;;;;5092490;28;20050;-67
2022/01/20 12:36:53;;;;;;;9.02;1.98;;;4.20;99.90;;;;;;5092803;28;20044;-68
2022/01/20 12:39:29;;;;;;;10.85;2.45;;;4.30;99.90;;;;;;5091891;28;20048;-67
2022/01/20 12:42:07;;;;;;;9.82;2.20;;;4.30;99.90;;;;;;5074979;28;20488;-66
2022/01/20 12:44:41;;;;;;;7.85;2.33;;;4.30;99.90;;;;;;5072121;28;20052;-66
2022/01/20 12:47:08;;;;;;;8.10;3.13;;;4.40;99.90;;;;;;5079988;28;20047;-68
2022/01/20 12:49:34;;;;;;;11.57;2.47;;;4.50;99.90;;;;;;5093506;28;20515;-68
2022/01/20 12:51:59;;;;;;;12.45;2.38;;;4.70;99.90;;;;;;5091879;28;20052;-67
2022/01/20 12:54:30;;;;;;;9.77;2.80;;;4.80;99.90;;;;;;5092179;28;20056;-68
2022/01/20 12:57:03;;;;;;;10.85;3.35;;;4.90;99.90;;;;;;5093676;28;20083;-67
2022/01/20 12:59:29;;;;;;;13.60;3.22;;;5.00;99.90;;;;;;5092483;28;20043;-68
2022/01/20 13:02:01;;;;;;;11.30;2.60;;;5.10;99.90;;;;;;5087966;28;20057;-68
2022/01/20 13:04:28;;;;;;;17.80;2.90;;;5.20;99.90;;;;;;5074556;28;20044;-66
2022/01/20 13:06:57;;;;;;;11.70;2.92;;;5.40;99.90;;;;;;5091990;28;20047;-66
2022/01/20 13:09:35;;;;;;;11.27;3.10;;;5.50;99.90;;;;;;5085387;28;20048;-68
2022/01/20 13:12:02;;;;;;;10.68;2.75;;;5.60;99.90;;;;;;5072763;28;20167;-68
2022/01/20 13:14:49;;;;;;;13.38;2.08;;;5.60;99.90;;;;;;5071734;28;20051;-67
2022/01/20 13:17:27;;;;;;;10.95;3.30;;;5.50;99.90;;;;;;5078450;28;20048;-67
2022/01/20 13:19:55;;;;;;;11.57;2.47;;;5.50;99.90;;;;;;5110820;27;20448;-67
2022/01/20 13:22:40;;;;;;;14.13;3.35;;;5.40;99.90;;;;;;5071351;28;20055;-68
2022/01/20 13:25:07;;;;;;;9.98;2.33;;;5.10;99.90;;;;;;5079574;28;20096;-69
2022/01/20 13:27:33;;;;;;;7.35;1.90;;;4.60;99.90;;;;;;5081287;28;20063;-68
2022/01/20 13:29:59;;;;;;;6.65;1.50;;;4.20;99.90;;;;;;5093302;28;20048;-68
2022/01/20 13:32:24;;;;;;;9.70;2.35;;;3.90;99.90;;;;;;5090072;28;20044;-68
2022/01/20 13:34:56;;;;;;;7.82;2.65;;;3.70;99.90;;;;;;5092957;28;20051;-67
2022/01/20 13:37:22;;;;;;;8.95;1.90;;;3.70;99.90;;;;;;5090884;28;20048;-68
2022/01/20 13:39:49;;;;;;;14.57;3.38;;;3.80;99.90;;;;;;5092648;28;20082;-68
2022/01/20 13:45:14;;;;;;;9.55;2.20;;;3.90;99.90;;;;;;5090808;28;20048;-68
2022/01/20 13:48:06;;;;;;;9.38;1.98;;;3.90;99.90;;;;;;5091835;28;20050;-68
2022/01/20 13:50:41;;;;;;;6.57;1.98;;;4.00;99.90;;;;;;5070396;28;20044;-68
2022/01/20 13:53:19;;;;;;;9.18;1.90;;;4.00;99.90;;;;;;5072534;28;20064;-67
2022/01/20 13:55:49;;;;;;;8.02;1.80;;;4.10;99.90;;;;;;5071205;28;20060;-67
2022/01/20 13:58:26;;;;;;;4.40;1.60;;;4.10;99.90;;;;;;5072572;28;20053;-67
2022/01/20 14:00:53;;;;;;;8.05;2.22;;;4.20;99.90;;;;;;5071742;28;20509;-69
2022/01/20 14:03:19;;;;;;;6.75;1.90;;;4.30;99.90;;;;;;5077056;28;20047;-68